Time;durP1;ratioP1;P1;durP2;ratioP2;P2;SDS_P1;SDS_P2;PMS_P1;PMS_P2;Temp;Humidity;BMP_temperature;BMP_pressure;BME280_temperature;BME280_humidity;BME280_pressure;Samples;Min_cycle;Max_cycle;Signal;HPM_P1;HPM_P2
2022/12/24 00:00:32;;;;;;;26.17;10.63;;;;;;;;;;5036083;28;20033;-78
2022/12/24 00:02:58;;;;;;;23.33;10.18;;;;;;;;;;5035702;28;20083;-77
2022/12/24 00:05:24;;;;;;;24.40;9.98;;;;;;;;;;5036149;28;20032;-77
2022/12/24 00:07:50;;;;;;;26.08;9.85;;;;;;;;;;5035974;28;20464;-77
2022/12/24 00:10:16;;;;;;;24.05;10.25;;;;;;;;;;5035809;28;20366;-77
2022/12/24 00:12:42;;;;;;;21.35;10.15;;;;;;;;;;5035817;28;20074;-77
2022/12/24 00:15:08;;;;;;;25.33;10.73;;;;;;;;;;5035709;28;20026;-77
2022/12/24 00:17:34;;;;;;;22.45;9.60;;;;;;;;;;5035610;28;20026;-77
2022/12/24 00:20:00;;;;;;;21.70;10.30;;;;;;;;;;5035481;28;20133;-77
2022/12/24 00:22:27;;;;;;;27.38;9.98;;;;;;;;;;5035586;28;20026;-78
2022/12/24 00:24:53;;;;;;;29.38;10.38;;;;;;;;;;5035277;28;20053;-77
2022/12/24 00:27:19;;;;;;;27.95;10.57;;;;;;;;;;5035355;28;20095;-77
2022/12/24 00:29:45;;;;;;;27.15;10.85;;;;;;;;;;5035491;28;20441;-77
2022/12/24 00:32:11;;;;;;;25.55;9.52;;;;;;;;;;5035228;28;20025;-78
2022/12/24 00:34:37;;;;;;;23.58;10.93;;;;;;;;;;5035371;28;20360;-77
2022/12/24 00:37:03;;;;;;;27.92;10.13;;;;;;;;;;5034972;28;20022;-77
2022/12/24 00:39:29;;;;;;;27.15;11.30;;;;;;;;;;5035196;28;20353;-77
2022/12/24 00:41:55;;;;;;;23.10;10.07;;;;;;;;;;5035604;28;20024;-79
2022/12/24 00:44:21;;;;;;;31.15;11.00;;;;;;;;;;5036450;28;20097;-80
2022/12/24 00:46:47;;;;;;;26.88;10.55;;;;;;;;;;5036313;28;20429;-80
2022/12/24 00:49:14;;;;;;;30.95;12.93;;;;;;;;;;5035980;28;20025;-79
2022/12/24 00:51:40;;;;;;;28.92;11.45;;;;;;;;;;5035900;28;20057;-79
2022/12/24 00:54:06;;;;;;;41.35;11.50;;;;;;;;;;5035128;28;20029;-79
2022/12/24 00:56:32;;;;;;;38.92;11.15;;;;;;;;;;5034719;28;20108;-79
2022/12/24 00:58:58;;;;;;;27.60;11.55;;;;;;;;;;5034821;28;20025;-79
2022/12/24 01:01:24;;;;;;;28.13;11.45;;;;;;;;;;5034826;28;20120;-79
2022/12/24 01:03:50;;;;;;;29.73;10.40;;;;;;;;;;5035092;28;20022;-79
2022/12/24 01:06:17;;;;;;;31.23;11.68;;;;;;;;;;5034799;28;20457;-79
2022/12/24 01:08:44;;;;;;;35.47;11.07;;;;;;;;;;5017594;28;20363;-79
2022/12/24 01:11:11;;;;;;;29.83;11.07;;;;;;;;;;5043834;28;20067;-79
2022/12/24 01:13:37;;;;;;;29.38;11.70;;;;;;;;;;5039353;28;20083;-79
2022/12/24 01:16:03;;;;;;;23.95;10.93;;;;;;;;;;5018998;28;20026;-79
2022/12/24 01:18:29;;;;;;;24.40;10.15;;;;;;;;;;5034548;28;20029;-79
2022/12/24 01:21:00;;;;;;;30.70;10.60;;;;;;;;;;5034437;28;20498;-79
2022/12/24 01:23:26;;;;;;;;;;;;;;;;;;5035003;28;20025;-79
2022/12/24 01:25:52;;;;;;;23.00;9.45;;;;;;;;;;5034472;28;20009;-79
2022/12/24 01:28:18;;;;;;;25.73;10.30;;;;;;;;;;5034501;28;20021;-80
2022/12/24 01:30:44;;;;;;;21.95;10.13;;;;;;;;;;5034450;28;20051;-80
2022/12/24 01:33:18;;;;;;;23.45;10.70;;;;;;;;;;5034629;28;20449;-80
2022/12/24 01:35:44;;;;;;;20.38;9.80;;;;;;;;;;5034173;28;20453;-80
2022/12/24 01:38:12;;;;;;;21.85;9.45;;;;;;;;;;5034270;28;20025;-80
2022/12/24 01:43:24;;;;;;;22.70;10.35;;;;;;;;;;5034779;28;20072;-80
2022/12/24 01:45:51;;;;;;;25.73;10.15;;;;;;;;;;5033983;28;20025;-80
2022/12/24 01:48:37;;;;;;;24.23;10.98;;;;;;;;;;5033925;28;20441;-80
2022/12/24 01:51:06;;;;;;;22.63;9.43;;;;;;;;;;5020036;28;20088;-79
2022/12/24 01:53:34;;;;;;;20.33;9.15;;;;;;;;;;5033978;28;20037;-79
2022/12/24 01:56:00;;;;;;;23.20;9.68;;;;;;;;;;5033575;28;20053;-80
2022/12/24 01:58:27;;;;;;;27.23;10.38;;;;;;;;;;5033969;28;20060;-79
2022/12/24 02:00:53;;;;;;;20.77;9.10;;;;;;;;;;5033853;28;20105;-79
2022/12/24 02:03:19;;;;;;;22.10;8.95;;;;;;;;;;5033730;28;20048;-79
2022/12/24 02:05:50;;;;;;;23.50;9.20;;;;;;;;;;5016208;28;20021;-79
2022/12/24 02:08:17;;;;;;;23.55;8.85;;;;;;;;;;5034012;28;20531;-80
2022/12/24 02:10:46;;;;;;;16.83;6.75;;;;;;;;;;5033814;28;20029;-79
2022/12/24 02:13:13;;;;;;;18.80;6.03;;;;;;;;;;5033750;28;20029;-80
2022/12/24 02:15:45;;;;;;;18.60;6.22;;;;;;;;;;5033606;28;20057;-79
2022/12/24 02:18:11;;;;;;;19.90;5.80;;;;;;;;;;5033642;28;20033;-79
2022/12/24 02:20:55;;;;;;;19.63;6.25;;;;;;;;;;5036354;28;20045;-80
2022/12/24 02:23:46;;;;;;;24.17;6.00;;;;;;;;;;5037983;28;20061;-80
2022/12/24 02:26:18;;;;;;;17.75;5.63;;;;;;;;;;5037541;28;20474;-79
2022/12/24 02:28:50;;;;;;;21.50;6.10;;;;;;;;;;5037938;28;20454;-80
2022/12/24 02:31:15;;;;;;;18.67;6.55;;;;;;;;;;5037802;28;20057;-80
2022/12/24 02:33:45;;;;;;;31.38;6.30;;;;;;;;;;5037656;28;20408;-79
2022/12/24 02:36:12;;;;;;;19.92;5.50;;;;;;;;;;5037604;28;20088;-80
2022/12/24 02:39:00;;;;;;;21.52;5.93;;;;;;;;;;5037539;28;20478;-80
2022/12/24 02:42:04;;;;;;;21.92;5.50;;;;;;;;;;5037701;28;20065;-80
2022/12/24 02:44:14;;;;;;;20.90;5.22;;;;;;;;;;5037444;28;20082;-80
2022/12/24 02:46:40;;;;;;;25.13;5.47;;;;;;;;;;5037191;28;20105;-80
2022/12/24 02:49:06;;;;;;;26.80;5.93;;;;;;;;;;5037504;28;20109;-80
2022/12/24 02:51:32;;;;;;;27.45;5.82;;;;;;;;;;5037681;28;20033;-79
2022/12/24 02:53:58;;;;;;;23.83;6.40;;;;;;;;;;5037502;28;20026;-80
2022/12/24 02:56:31;;;;;;;18.85;5.05;;;;;;;;;;5037207;28;20361;-80
2022/12/24 02:59:00;;;;;;;21.35;5.18;;;;;;;;;;5037276;28;20040;-80
2022/12/24 03:01:35;;;;;;;32.40;5.28;;;;;;;;;;5036888;28;20030;-80
2022/12/24 03:04:07;;;;;;;26.27;5.03;;;;;;;;;;5037293;28;20033;-80
2022/12/24 03:06:44;;;;;;;29.13;4.65;;;;;;;;;;5037048;28;20474;-79
2022/12/24 03:09:16;;;;;;;28.77;4.75;;;;;;;;;;5036970;28;20021;-80
2022/12/24 03:11:45;;;;;;;24.58;4.00;;;;;;;;;;5037163;28;20510;-80
2022/12/24 03:14:12;;;;;;;32.92;4.47;;;;;;;;;;5036882;28;20034;-80
2022/12/24 03:16:38;;;;;;;31.02;4.32;;;;;;;;;;5036898;28;20079;-80
2022/12/24 03:19:04;;;;;;;27.55;3.55;;;;;;;;;;5036917;28;20030;-79
2022/12/24 03:21:32;;;;;;;31.05;3.50;;;;;;;;;;5036859;28;20030;-80
2022/12/24 03:23:58;;;;;;;39.80;4.97;;;;;;;;;;5019213;28;20022;-80
2022/12/24 03:26:25;;;;;;;31.38;4.50;;;;;;;;;;5036614;28;20036;-80
2022/12/24 03:28:51;;;;;;;29.45;3.90;;;;;;;;;;5036530;28;20037;-80
2022/12/24 03:31:17;;;;;;;40.20;3.95;;;;;;;;;;5018632;28;20045;-79
2022/12/24 03:33:43;;;;;;;31.55;4.78;;;;;;;;;;5036590;28;20030;-80
2022/12/24 03:36:10;;;;;;;35.75;3.70;;;;;;;;;;5036448;28;20059;-80
2022/12/24 03:38:36;;;;;;;30.90;3.80;;;;;;;;;;5036250;28;20101;-79
2022/12/24 03:41:02;;;;;;;28.98;3.55;;;;;;;;;;5036575;28;20049;-80
2022/12/24 03:43:28;;;;;;;28.63;4.05;;;;;;;;;;5036314;28;20021;-80
2022/12/24 03:45:54;;;;;;;25.65;3.55;;;;;;;;;;5036509;28;20017;-80
2022/12/24 03:48:20;;;;;;;31.23;4.10;;;;;;;;;;5036687;28;20057;-80
2022/12/24 03:50:46;;;;;;;41.75;4.45;;;;;;;;;;5036422;28;20118;-80
2022/12/24 03:53:12;;;;;;;27.27;3.80;;;;;;;;;;5036337;28;20032;-79
2022/12/24 03:55:38;;;;;;;34.05;4.10;;;;;;;;;;5036096;28;20045;-80
2022/12/24 03:58:04;;;;;;;30.90;4.10;;;;;;;;;;5036275;28;20108;-80
2022/12/24 04:00:30;;;;;;;27.50;3.60;;;;;;;;;;5036380;28;20041;-79
2022/12/24 04:02:56;;;;;;;36.67;3.72;;;;;;;;;;5035780;28;20088;-80
2022/12/24 04:05:22;;;;;;;38.58;4.88;;;;;;;;;;5036041;28;20029;-80
2022/12/24 04:07:48;;;;;;;36.65;4.47;;;;;;;;;;5036038;28;20021;-80
2022/12/24 04:10:15;;;;;;;40.75;4.10;;;;;;;;;;5035882;28;20060;-80
2022/12/24 04:12:41;;;;;;;40.58;4.70;;;;;;;;;;5035795;28;20032;-80
2022/12/24 04:15:07;;;;;;;51.10;5.68;;;;;;;;;;5035628;28;20017;-80
2022/12/24 04:17:34;;;;;;;36.38;3.83;;;;;;;;;;5035754;28;20028;-80
2022/12/24 04:19:59;;;;;;;42.30;4.40;;;;;;;;;;5035567;28;20040;-80
2022/12/24 04:22:25;;;;;;;30.27;4.65;;;;;;;;;;5035277;28;20034;-79
2022/12/24 04:24:51;;;;;;;32.92;4.60;;;;;;;;;;5035619;28;20100;-80
2022/12/24 04:27:17;;;;;;;36.38;4.60;;;;;;;;;;5035546;28;20021;-80
2022/12/24 04:29:43;;;;;;;38.67;4.60;;;;;;;;;;5035588;28;20036;-80
2022/12/24 04:32:09;;;;;;;39.20;4.43;;;;;;;;;;5035892;28;20028;-80
2022/12/24 04:34:36;;;;;;;29.42;4.03;;;;;;;;;;5035504;28;20026;-80
2022/12/24 04:37:02;;;;;;;35.25;4.38;;;;;;;;;;5032154;28;20372;-80
2022/12/24 04:39:28;;;;;;;38.78;4.65;;;;;;;;;;5015627;28;20030;-80
2022/12/24 04:41:54;;;;;;;41.88;5.65;;;;;;;;;;5015300;28;20099;-79
2022/12/24 04:44:20;;;;;;;42.22;4.50;;;;;;;;;;4997770;28;20038;-80
2022/12/24 04:46:46;;;;;;;42.88;4.75;;;;;;;;;;5015426;28;20354;-80
2022/12/24 04:49:12;;;;;;;54.78;6.50;;;;;;;;;;5015284;28;20034;-80
2022/12/24 04:51:38;;;;;;;34.15;3.90;;;;;;;;;;5015389;28;20172;-80
2022/12/24 04:54:04;;;;;;;30.67;4.70;;;;;;;;;;5014964;28;20034;-79
2022/12/24 04:56:31;;;;;;;27.65;3.80;;;;;;;;;;5015070;28;20050;-80
2022/12/24 04:58:58;;;;;;;44.80;4.43;;;;;;;;;;5015207;28;20026;-80
2022/12/24 05:01:25;;;;;;;43.33;4.15;;;;;;;;;;5015022;28;20034;-80
2022/12/24 05:03:52;;;;;;;48.38;5.22;;;;;;;;;;5015132;28;20045;-80
2022/12/24 05:06:20;;;;;;;37.88;5.22;;;;;;;;;;5014977;28;20030;-80
2022/12/24 05:08:46;;;;;;;38.50;4.63;;;;;;;;;;5014992;28;20033;-80
2022/12/24 05:11:15;;;;;;;34.85;4.45;;;;;;;;;;5015261;28;20034;-80
2022/12/24 05:13:44;;;;;;;36.15;4.55;;;;;;;;;;5014933;28;20022;-79
2022/12/24 05:16:10;;;;;;;37.38;4.25;;;;;;;;;;5014731;28;20029;-79
2022/12/24 05:18:36;;;;;;;34.60;3.80;;;;;;;;;;5014948;28;20025;-80
2022/12/24 05:21:02;;;;;;;42.33;3.92;;;;;;;;;;5014860;28;20038;-80
2022/12/24 05:26:23;;;;;;;41.47;3.90;;;;;;;;;;5015154;28;20076;-80
2022/12/24 05:28:53;;;;;;;34.25;3.28;;;;;;;;;;5014503;28;20021;-80
2022/12/24 05:31:19;;;;;;;26.90;3.70;;;;;;;;;;5014653;28;20058;-80
2022/12/24 05:33:45;;;;;;;36.92;3.60;;;;;;;;;;5014490;28;20022;-80
2022/12/24 05:36:11;;;;;;;39.65;4.38;;;;;;;;;;5014874;28;20188;-80
2022/12/24 05:38:37;;;;;;;33.28;3.65;;;;;;;;;;5014620;28;20038;-79
2022/12/24 05:41:04;;;;;;;40.80;4.40;;;;;;;;;;5015022;28;20041;-80
2022/12/24 05:43:30;;;;;;;36.60;4.38;;;;;;;;;;5014462;28;20064;-80
2022/12/24 05:46:04;;;;;;;34.85;4.28;;;;;;;;;;5014487;28;20067;-80
2022/12/24 05:48:30;;;;;;;30.50;3.80;;;;;;;;;;5014481;28;20477;-80
2022/12/24 05:50:56;;;;;;;33.35;4.65;;;;;;;;;;5013851;28;20030;-82
2022/12/24 05:53:22;;;;;;;29.73;4.13;;;;;;;;;;5026571;28;20064;-82
2022/12/24 05:55:48;;;;;;;42.55;5.20;;;;;;;;;;5032836;28;20041;-84
2022/12/24 05:58:14;;;;;;;32.60;3.53;;;;;;;;;;5033753;28;20033;-84
2022/12/24 06:00:40;;;;;;;32.08;3.58;;;;;;;;;;5034045;28;20152;-84
2022/12/24 06:03:06;;;;;;;40.42;7.22;;;;;;;;;;5034244;28;20380;-84
2022/12/24 06:05:32;;;;;;;29.35;3.75;;;;;;;;;;5034280;28;20033;-84
2022/12/24 06:07:58;;;;;;;25.27;2.95;;;;;;;;;;5034193;28;20025;-84
2022/12/24 06:10:24;;;;;;;27.90;4.63;;;;;;;;;;5033158;28;20455;-84
2022/12/24 06:12:50;;;;;;;29.90;3.53;;;;;;;;;;4997121;28;20112;-84
2022/12/24 06:15:16;;;;;;;28.58;3.13;;;;;;;;;;5017815;28;20022;-84
2022/12/24 06:17:42;;;;;;;31.83;3.67;;;;;;;;;;5005631;28;20033;-84
2022/12/24 06:20:08;;;;;;;29.25;2.92;;;;;;;;;;5014128;28;20181;-84
2022/12/24 06:22:34;;;;;;;26.52;4.22;;;;;;;;;;5034556;28;20029;-84
2022/12/24 06:25:00;;;;;;;32.70;3.35;;;;;;;;;;5016581;28;20025;-84
2022/12/24 06:27:26;;;;;;;22.30;3.53;;;;;;;;;;5033693;28;20026;-82
2022/12/24 06:29:52;;;;;;;26.30;4.18;;;;;;;;;;5034222;28;20033;-81
2022/12/24 06:32:19;;;;;;;24.70;3.60;;;;;;;;;;5033326;28;20022;-81
2022/12/24 06:34:45;;;;;;;50.25;4.60;;;;;;;;;;5033580;28;20021;-82
2022/12/24 06:37:21;;;;;;;110.75;7.93;;;;;;;;;;5033143;28;20047;-82
2022/12/24 06:39:47;;;;;;;28.73;3.88;;;;;;;;;;5033207;28;20535;-82
2022/12/24 06:42:13;;;;;;;32.33;4.57;;;;;;;;;;5015530;28;20120;-82
2022/12/24 06:44:39;;;;;;;27.63;3.35;;;;;;;;;;5033615;28;20021;-81
2022/12/24 06:47:05;;;;;;;22.45;3.15;;;;;;;;;;5015267;28;20120;-81
2022/12/24 06:49:31;;;;;;;24.92;3.60;;;;;;;;;;5033132;28;20029;-82
2022/12/24 06:51:57;;;;;;;300.23;17.27;;;;;;;;;;5015403;28;20080;-82
2022/12/24 06:54:23;;;;;;;21.30;3.47;;;;;;;;;;5033568;28;20060;-82
2022/12/24 06:56:49;;;;;;;33.00;3.47;;;;;;;;;;5015080;28;20045;-81
2022/12/24 06:59:15;;;;;;;30.33;4.10;;;;;;;;;;5032968;28;20028;-82
2022/12/24 07:01:41;;;;;;;32.85;3.83;;;;;;;;;;5032801;28;20564;-81
2022/12/24 07:04:07;;;;;;;39.05;3.80;;;;;;;;;;5033234;28;20056;-81
2022/12/24 07:06:33;;;;;;;30.48;4.10;;;;;;;;;;5035123;28;20045;-81
2022/12/24 07:08:59;;;;;;;37.50;4.78;;;;;;;;;;5036640;28;20025;-82
2022/12/24 07:11:25;;;;;;;32.15;4.72;;;;;;;;;;5037447;28;20029;-81
2022/12/24 07:13:51;;;;;;;29.33;3.78;;;;;;;;;;5036944;28;20512;-81
2022/12/24 07:16:17;;;;;;;25.02;4.10;;;;;;;;;;5036519;28;20052;-81
2022/12/24 07:18:43;;;;;;;25.85;4.50;;;;;;;;;;5036493;28;20101;-81
2022/12/24 07:21:09;;;;;;;32.85;4.25;;;;;;;;;;5036555;28;20034;-79
2022/12/24 07:23:36;;;;;;;32.53;4.38;;;;;;;;;;5036996;28;20036;-80
2022/12/24 07:26:03;;;;;;;38.03;4.50;;;;;;;;;;5036530;28;20025;-80
2022/12/24 07:28:29;;;;;;;32.92;4.00;;;;;;;;;;5036254;28;20053;-81
2022/12/24 07:30:59;;;;;;;29.17;4.18;;;;;;;;;;5036712;28;20029;-80
2022/12/24 07:33:25;;;;;;;33.08;4.28;;;;;;;;;;5037115;28;20021;-80
2022/12/24 07:35:59;;;;;;;34.70;4.20;;;;;;;;;;5036666;28;20026;-80
2022/12/24 07:38:25;;;;;;;27.60;3.80;;;;;;;;;;5036708;28;20021;-80
2022/12/24 07:40:51;;;;;;;29.48;3.30;;;;;;;;;;5036391;28;20484;-80
2022/12/24 07:43:17;;;;;;;31.92;3.70;;;;;;;;;;5036500;28;20029;-80
2022/12/24 07:45:43;;;;;;;35.08;4.80;;;;;;;;;;5036177;28;20061;-80
2022/12/24 07:48:09;;;;;;;44.63;4.88;;;;;;;;;;5036167;28;20112;-80
2022/12/24 07:50:35;;;;;;;38.03;4.72;;;;;;;;;;5036055;28;20032;-80
2022/12/24 07:53:01;;;;;;;37.38;4.13;;;;;;;;;;5035982;28;20029;-80
2022/12/24 07:55:27;;;;;;;42.15;4.63;;;;;;;;;;5035951;28;20056;-80
2022/12/24 07:57:53;;;;;;;38.92;5.05;;;;;;;;;;5036427;28;20091;-80
2022/12/24 08:00:19;;;;;;;32.40;4.50;;;;;;;;;;5035604;28;20476;-81
2022/12/24 08:02:45;;;;;;;39.78;4.93;;;;;;;;;;5035992;28;20025;-81
2022/12/24 08:05:11;;;;;;;27.73;4.07;;;;;;;;;;5035801;28;20036;-81
2022/12/24 08:07:37;;;;;;;25.27;4.28;;;;;;;;;;5035848;28;20057;-80
2022/12/24 08:10:03;;;;;;;29.38;3.70;;;;;;;;;;5035669;28;20384;-81
2022/12/24 08:12:29;;;;;;;36.33;4.95;;;;;;;;;;5017831;28;20018;-81
2022/12/24 08:14:55;;;;;;;29.45;3.88;;;;;;;;;;5035878;28;20086;-80
2022/12/24 08:17:21;;;;;;;32.03;3.75;;;;;;;;;;5034550;28;20030;-81
2022/12/24 08:19:47;;;;;;;37.97;4.50;;;;;;;;;;5035799;28;20044;-81
2022/12/24 08:22:13;;;;;;;26.98;4.38;;;;;;;;;;5035562;28;20026;-80
2022/12/24 08:24:39;;;;;;;35.47;3.80;;;;;;;;;;5018026;28;20441;-81
2022/12/24 08:27:05;;;;;;;34.85;4.82;;;;;;;;;;5035681;28;20115;-81
2022/12/24 08:29:31;;;;;;;30.33;4.97;;;;;;;;;;5035713;28;20449;-81
2022/12/24 08:31:57;;;;;;;29.17;4.28;;;;;;;;;;5017552;28;20029;-80
2022/12/24 08:34:23;;;;;;;27.58;3.60;;;;;;;;;;5035843;28;20057;-80
2022/12/24 08:36:49;;;;;;;29.80;3.88;;;;;;;;;;5035540;28;20060;-81
2022/12/24 08:39:15;;;;;;;38.80;4.70;;;;;;;;;;5035248;28;20053;-81
2022/12/24 08:41:41;;;;;;;35.63;3.83;;;;;;;;;;5035384;28;20033;-80
2022/12/24 08:44:07;;;;;;;25.75;3.65;;;;;;;;;;5034875;28;20464;-80
2022/12/24 08:46:33;;;;;;;24.83;4.20;;;;;;;;;;5028035;28;20033;-80
2022/12/24 08:48:59;;;;;;;36.15;4.03;;;;;;;;;;5015084;28;20041;-80
2022/12/24 08:51:25;;;;;;;32.03;3.67;;;;;;;;;;5015056;28;20057;-80
2022/12/24 08:54:05;;;;;;;28.55;3.60;;;;;;;;;;5015344;28;20137;-80
2022/12/24 08:56:33;;;;;;;26.35;4.05;;;;;;;;;;5015139;28;20060;-81
2022/12/24 08:58:59;;;;;;;43.35;5.20;;;;;;;;;;5015597;28;20118;-80
2022/12/24 09:01:25;;;;;;;37.10;4.47;;;;;;;;;;5014977;28;20113;-80
2022/12/24 09:03:51;;;;;;;38.55;4.47;;;;;;;;;;5016910;28;20032;-81
2022/12/24 09:06:17;;;;;;;37.15;5.03;;;;;;;;;;5017909;28;20030;-80
2022/12/24 09:08:43;;;;;;;29.48;4.28;;;;;;;;;;5016317;28;20026;-81
2022/12/24 09:11:16;;;;;;;34.63;4.93;;;;;;;;;;5018806;28;20037;-80
2022/12/24 09:13:43;;;;;;;30.67;4.07;;;;;;;;;;5016032;28;20030;-80
2022/12/24 09:16:09;;;;;;;38.17;4.10;;;;;;;;;;5015549;28;20018;-80
2022/12/24 09:18:35;;;;;;;31.40;3.95;;;;;;;;;;5014770;28;20069;-80
2022/12/24 09:21:03;;;;;;;36.13;4.28;;;;;;;;;;5014675;28;20113;-81
2022/12/24 09:23:29;;;;;;;34.65;4.38;;;;;;;;;;5015401;28;20369;-81
2022/12/24 09:25:55;;;;;;;27.00;4.40;;;;;;;;;;5015004;28;20018;-80
2022/12/24 09:28:21;;;;;;;33.83;3.95;;;;;;;;;;5014678;28;20033;-81
2022/12/24 09:30:57;;;;;;;30.45;3.65;;;;;;;;;;5015006;28;20029;-81
2022/12/24 09:33:23;;;;;;;33.58;4.13;;;;;;;;;;5014748;28;20083;-81
2022/12/24 09:35:50;;;;;;;34.83;4.15;;;;;;;;;;5014528;28;20029;-81
2022/12/24 09:38:16;;;;;;;30.55;3.90;;;;;;;;;;5015121;28;20128;-80
2022/12/24 09:40:42;;;;;;;31.67;4.10;;;;;;;;;;5014402;28;20468;-81
2022/12/24 09:43:16;;;;;;;31.42;3.90;;;;;;;;;;5031963;28;20071;-80
2022/12/24 09:45:49;;;;;;;34.72;5.18;;;;;;;;;;5034161;28;20026;-81
2022/12/24 09:48:22;;;;;;;25.65;3.45;;;;;;;;;;5034553;28;20033;-81
2022/12/24 09:51:04;;;;;;;33.17;4.68;;;;;;;;;;5021494;28;20021;-81
2022/12/24 09:53:45;;;;;;;27.15;3.67;;;;;;;;;;5034027;28;20105;-80
2022/12/24 09:56:23;;;;;;;27.05;3.47;;;;;;;;;;5037617;28;20045;-81
2022/12/24 09:58:52;;;;;;;29.73;5.13;;;;;;;;;;5038030;28;20029;-80
2022/12/24 10:01:19;;;;;;;28.77;3.33;;;;;;;;;;5034594;28;20034;-80
2022/12/24 10:03:45;;;;;;;36.38;3.25;;;;;;;;;;5034263;28;20048;-79
2022/12/24 10:06:14;;;;;;;30.85;3.33;;;;;;;;;;5034210;28;20480;-79
2022/12/24 10:08:40;;;;;;;29.83;3.47;;;;;;;;;;5036077;28;20455;-79
2022/12/24 10:11:06;;;;;;;34.05;4.15;;;;;;;;;;5034996;28;20029;-80
2022/12/24 10:13:38;;;;;;;27.83;3.88;;;;;;;;;;5037913;28;20045;-80
2022/12/24 10:16:10;;;;;;;31.63;3.42;;;;;;;;;;5034014;28;20108;-80
2022/12/24 10:18:55;;;;;;;30.98;3.40;;;;;;;;;;5034357;28;20404;-80
2022/12/24 10:21:32;;;;;;;24.65;3.85;;;;;;;;;;5017271;28;20492;-80
2022/12/24 10:24:03;;;;;;;29.55;3.42;;;;;;;;;;5016129;28;20108;-80
2022/12/24 10:26:32;;;;;;;23.55;3.60;;;;;;;;;;5039022;28;20026;-80
2022/12/24 10:29:02;;;;;;;26.52;3.80;;;;;;;;;;5038898;28;20025;-80
2022/12/24 10:31:30;;;;;;;29.80;2.90;;;;;;;;;;5033330;28;20087;-80
2022/12/24 10:33:59;;;;;;;21.92;2.75;;;;;;;;;;5034432;28;20030;-80
2022/12/24 10:36:27;;;;;;;33.00;3.45;;;;;;;;;;5039179;28;20053;-80
2022/12/24 10:38:53;;;;;;;23.33;3.55;;;;;;;;;;5019016;28;20034;-80
2022/12/24 10:41:19;;;;;;;27.60;3.50;;;;;;;;;;5035403;28;20061;-79
2022/12/24 10:43:46;;;;;;;26.00;3.85;;;;;;;;;;5037407;28;20096;-79
2022/12/24 10:46:32;;;;;;;25.02;3.28;;;;;;;;;;5038917;28;20265;-80
2022/12/24 10:49:00;;;;;;;27.60;3.45;;;;;;;;;;5042505;28;20026;-79
2022/12/24 10:51:46;;;;;;;22.88;4.07;;;;;;;;;;5037306;28;20025;-80
2022/12/24 10:54:17;;;;;;;22.73;3.25;;;;;;;;;;5025978;28;20076;-80
2022/12/24 10:56:45;;;;;;;33.47;4.03;;;;;;;;;;5037295;28;20045;-79
2022/12/24 10:59:29;;;;;;;21.70;2.50;;;;;;;;;;5041970;28;20021;-79
2022/12/24 11:01:57;;;;;;;26.63;3.42;;;;;;;;;;5037008;28;20032;-80
2022/12/24 11:04:24;;;;;;;29.15;4.63;;;;;;;;;;5044417;28;20041;-80
2022/12/24 11:07:04;;;;;;;24.60;2.92;;;;;;;;;;5041311;28;20022;-80
2022/12/24 11:09:35;;;;;;;19.33;2.60;;;;;;;;;;5041477;28;20054;-80
2022/12/24 11:12:03;;;;;;;25.05;3.92;;;;;;;;;;5039739;28;20025;-80
2022/12/24 11:14:32;;;;;;;24.23;3.10;;;;;;;;;;5037747;28;20033;-79
2022/12/24 11:16:58;;;;;;;19.55;3.75;;;;;;;;;;5039457;28;20022;-79
2022/12/24 11:19:29;;;;;;;18.25;2.95;;;;;;;;;;5022781;28;20041;-79
2022/12/24 11:22:03;;;;;;;19.42;2.72;;;;;;;;;;5038108;28;20469;-79
2022/12/24 11:24:37;;;;;;;26.35;3.15;;;;;;;;;;5036982;28;20029;-79
2022/12/24 11:27:22;;;;;;;15.85;3.10;;;;;;;;;;5038125;28;20041;-79
2022/12/24 11:29:48;;;;;;;30.70;3.42;;;;;;;;;;5040080;28;20061;-79
2022/12/24 11:32:21;;;;;;;25.45;4.18;;;;;;;;;;5037245;28;20060;-79
2022/12/24 11:34:47;;;;;;;30.92;4.05;;;;;;;;;;5040599;28;20032;-80
2022/12/24 11:37:24;;;;;;;23.92;3.78;;;;;;;;;;5037749;28;20396;-79
2022/12/24 11:39:51;;;;;;;37.25;5.50;;;;;;;;;;5037431;28;20031;-79
2022/12/24 11:42:23;;;;;;;25.02;3.30;;;;;;;;;;5038750;28;20022;-79
2022/12/24 11:44:50;;;;;;;22.90;3.15;;;;;;;;;;5039816;28;20029;-80
2022/12/24 11:47:15;;;;;;;19.25;2.95;;;;;;;;;;5039213;28;20017;-79
2022/12/24 11:49:41;;;;;;;20.30;2.83;;;;;;;;;;5036747;28;20400;-79
2022/12/24 11:52:10;;;;;;;16.60;3.17;;;;;;;;;;5037303;28;20064;-79
2022/12/24 11:54:57;;;;;;;23.63;2.70;;;;;;;;;;5036893;28;20026;-79
2022/12/24 11:57:26;;;;;;;22.48;3.25;;;;;;;;;;5022654;28;20064;-79
2022/12/24 11:59:52;;;;;;;22.20;3.15;;;;;;;;;;5038009;28;20036;-79
2022/12/24 12:02:36;;;;;;;21.13;4.03;;;;;;;;;;5040676;28;20029;-79
2022/12/24 12:05:04;;;;;;;19.55;3.38;;;;;;;;;;5037432;28;20026;-79
2022/12/24 12:07:33;;;;;;;21.23;2.97;;;;;;;;;;5037061;28;20095;-78
2022/12/24 12:10:03;;;;;;;22.17;3.72;;;;;;;;;;5029140;28;20025;-79
2022/12/24 12:12:32;;;;;;;13.70;3.40;;;;;;;;;;5037302;28;20030;-78
2022/12/24 12:15:04;;;;;;;21.77;3.75;;;;;;;;;;5037880;28;20044;-79
2022/12/24 12:17:33;;;;;;;22.92;4.40;;;;;;;;;;5039879;28;20022;-79
2022/12/24 12:20:18;;;;;;;17.95;3.58;;;;;;;;;;5039555;28;20025;-79
2022/12/24 12:22:50;;;;;;;17.63;3.65;;;;;;;;;;5040682;28;20474;-80
2022/12/24 12:25:22;;;;;;;20.55;4.00;;;;;;;;;;5037389;28;20025;-79
2022/12/24 12:27:50;;;;;;;18.35;2.50;;;;;;;;;;5038149;28;20033;-79
2022/12/24 12:30:19;;;;;;;12.95;2.53;;;;;;;;;;5038113;28;20036;-80
2022/12/24 12:32:48;;;;;;;23.63;4.05;;;;;;;;;;5036631;28;20029;-79
2022/12/24 12:35:25;;;;;;;13.80;3.20;;;;;;;;;;5028297;28;20018;-79
2022/12/24 12:37:54;;;;;;;24.83;4.38;;;;;;;;;;5033521;28;20099;-79
2022/12/24 12:40:21;;;;;;;18.48;2.97;;;;;;;;;;5038516;28;20040;-79
2022/12/24 12:42:56;;;;;;;17.27;3.03;;;;;;;;;;5014395;28;20053;-79
2022/12/24 12:45:43;;;;;;;20.92;2.90;;;;;;;;;;5017626;28;20022;-79
2022/12/24 12:48:08;;;;;;;19.30;2.83;;;;;;;;;;5016923;28;20018;-79
2022/12/24 12:50:37;;;;;;;19.48;3.00;;;;;;;;;;5019895;28;20116;-80
2022/12/24 12:53:22;;;;;;;17.80;3.38;;;;;;;;;;5016478;28;20058;-79
2022/12/24 12:55:51;;;;;;;16.92;3.50;;;;;;;;;;5015719;28;20045;-80
2022/12/24 12:58:23;;;;;;;10.52;3.00;;;;;;;;;;5017311;28;20096;-79
2022/12/24 13:00:52;;;;;;;17.38;4.07;;;;;;;;;;5017988;28;20044;-80
2022/12/24 13:03:30;;;;;;;16.88;3.25;;;;;;;;;;5021193;28;20389;-80
2022/12/24 13:06:18;;;;;;;14.65;2.67;;;;;;;;;;5017291;28;20030;-79
2022/12/24 13:09:10;;;;;;;18.45;2.90;;;;;;;;;;5020508;28;20034;-79
2022/12/24 13:11:42;;;;;;;15.05;2.78;;;;;;;;;;5017474;28;20502;-80
2022/12/24 13:14:37;;;;;;;12.18;2.50;;;;;;;;;;5024056;28;20034;-80
2022/12/24 13:17:03;;;;;;;12.13;3.15;;;;;;;;;;4996605;28;20064;-79
2022/12/24 13:19:32;;;;;;;17.70;3.58;;;;;;;;;;5022509;28;20536;-80
2022/12/24 13:22:01;;;;;;;18.23;3.15;;;;;;;;;;5018120;28;20061;-80
2022/12/24 13:24:29;;;;;;;20.10;3.33;;;;;;;;;;5016779;28;20417;-80
2022/12/24 13:27:15;;;;;;;20.70;5.05;;;;;;;;;;5021253;28;20064;-80
2022/12/24 13:29:44;;;;;;;19.10;3.30;;;;;;;;;;5030516;28;20031;-80
2022/12/24 13:32:19;;;;;;;14.43;3.30;;;;;;;;;;5031836;28;20022;-80
2022/12/24 13:34:52;;;;;;;14.73;3.10;;;;;;;;;;5022236;28;20037;-79
2022/12/24 13:37:23;;;;;;;15.15;2.38;;;;;;;;;;5017865;28;20032;-81
2022/12/24 13:40:13;;;;;;;13.45;2.95;;;;;;;;;;5016799;28;20030;-81
2022/12/24 13:42:51;;;;;;;13.80;3.28;;;;;;;;;;5028544;28;20057;-82
2022/12/24 13:45:30;;;;;;;22.35;3.90;;;;;;;;;;5030445;28;20045;-82
2022/12/24 13:48:05;;;;;;;13.65;2.92;;;;;;;;;;5021976;28;20080;-82
2022/12/24 13:50:43;;;;;;;14.10;2.90;;;;;;;;;;5017714;28;20041;-82
2022/12/24 13:53:18;;;;;;;16.65;2.45;;;;;;;;;;5036095;28;20025;-82
2022/12/24 13:55:55;;;;;;;17.02;2.72;;;;;;;;;;5042898;28;20107;-82
2022/12/24 13:58:23;;;;;;;11.45;2.40;;;;;;;;;;5020469;28;20731;-81
2022/12/24 14:00:57;;;;;;;12.02;2.95;;;;;;;;;;5037390;28;20041;-82
2022/12/24 14:03:25;;;;;;;18.38;2.78;;;;;;;;;;5044308;28;20087;-82
2022/12/24 14:05:56;;;;;;;15.82;2.72;;;;;;;;;;5037608;28;20037;-82
2022/12/24 14:08:26;;;;;;;11.15;2.38;;;;;;;;;;5039387;28;20026;-82
2022/12/24 14:11:13;;;;;;;11.95;2.90;;;;;;;;;;5045743;28;20029;-82
2022/12/24 14:13:39;;;;;;;11.90;2.55;;;;;;;;;;5022983;28;20029;-82
2022/12/24 14:16:15;;;;;;;14.77;2.88;;;;;;;;;;5033214;28;20029;-79
2022/12/24 14:18:43;;;;;;;12.50;3.15;;;;;;;;;;5016147;28;20022;-80
2022/12/24 14:21:16;;;;;;;14.80;3.00;;;;;;;;;;5022610;28;20026;-81
2022/12/24 14:23:52;;;;;;;13.13;2.72;;;;;;;;;;5031868;28;20116;-81
2022/12/24 14:26:20;;;;;;;15.75;3.20;;;;;;;;;;5033892;28;20473;-81
2022/12/24 14:28:57;;;;;;;16.75;3.28;;;;;;;;;;5044163;28;20415;-80
2022/12/24 14:31:23;;;;;;;11.77;2.45;;;;;;;;;;5042652;28;20104;-80
2022/12/24 14:33:49;;;;;;;18.90;2.97;;;;;;;;;;5035830;28;20101;-80
2022/12/24 14:36:21;;;;;;;15.35;3.97;;;;;;;;;;5019823;28;20056;-81
2022/12/24 14:38:48;;;;;;;12.93;3.13;;;;;;;;;;5034151;28;20057;-80
2022/12/24 14:41:38;;;;;;;16.67;3.00;;;;;;;;;;5035394;28;20033;-80
2022/12/24 14:44:13;;;;;;;20.30;2.97;;;;;;;;;;5036977;28;20033;-80